Time;durP1;ratioP1;P1;durP2;ratioP2;P2;SDS_P1;SDS_P2;PMS_P1;PMS_P2;Temp;Humidity;BMP_temperature;BMP_pressure;BME280_temperature;BME280_humidity;BME280_pressure;Samples;Min_cycle;Max_cycle;Signal;HPM_P1;HPM_P2
2022/08/05 00:01:13;;;;;;;7.08;5.45;;;;;;;21.05;100.00;98142.67;1738656;79;28028;-86
2022/08/05 00:03:40;;;;;;;7.08;5.37;;;;;;;21.00;100.00;98141.86;1760400;79;28463;-86
2022/08/05 00:06:09;;;;;;;7.15;5.40;;;;;;;20.96;100.00;98142.40;1763414;79;28105;-86
2022/08/05 00:08:35;;;;;;;6.40;5.80;;;;;;;20.93;100.00;98143.60;1742305;79;28238;-86
2022/08/05 00:11:05;;;;;;;7.15;5.85;;;;;;;20.88;100.00;98144.64;1751458;79;28101;-86
2022/08/05 00:13:37;;;;;;;6.45;5.25;;;;;;;20.84;100.00;98148.14;1737670;80;28080;-86
2022/08/05 00:16:05;;;;;;;;;;;;;;;20.83;100.00;98147.02;1774345;79;28068;-86
2022/08/05 00:18:32;;;;;;;7.05;5.22;;;;;;;20.81;100.00;98145.86;1732768;80;22053;-86
2022/08/05 00:20:58;;;;;;;6.78;5.37;;;;;;;20.69;100.00;98149.94;1747016;79;28218;-86
2022/08/05 00:23:24;;;;;;;8.35;6.10;;;;;;;20.59;100.00;98147.19;1741765;80;28084;-86
2022/08/05 00:25:50;;;;;;;5.90;5.30;;;;;;;20.52;100.00;98151.55;1711866;81;28213;-89
2022/08/05 00:28:17;;;;;;;6.60;5.03;;;;;;;20.38;100.00;98149.16;1674805;83;28095;-88
2022/08/05 00:30:43;;;;;;;5.28;4.53;;;;;;;20.29;100.00;98151.52;1680666;82;28261;-87
2022/08/05 00:33:10;;;;;;;5.72;4.90;;;;;;;20.30;100.00;98150.49;1726270;81;28110;-87
2022/08/05 00:35:36;;;;;;;7.40;4.97;;;;;;;20.33;100.00;98152.35;1705671;82;28143;-87
2022/08/05 00:38:02;;;;;;;6.20;5.20;;;;;;;20.26;100.00;98146.04;1717433;82;43041;-87
2022/08/05 00:40:28;;;;;;;5.92;4.65;;;;;;;20.30;100.00;98143.35;1705917;81;28228;-87
2022/08/05 00:42:57;;;;;;;6.55;4.83;;;;;;;20.36;100.00;98142.68;1714253;81;28084;-87
2022/08/05 00:45:23;;;;;;;6.37;5.08;;;;;;;20.44;100.00;98141.81;1709908;81;28160;-87
2022/08/05 00:47:50;;;;;;;6.45;5.75;;;;;;;20.49;100.00;98140.78;1700463;82;28114;-87
2022/08/05 00:50:16;;;;;;;8.90;4.47;;;;;;;20.51;100.00;98137.95;1668158;83;28115;-86
2022/08/05 00:52:42;;;;;;;6.17;4.40;;;;;;;20.49;100.00;98136.80;1680599;82;28114;-89
2022/08/05 00:55:08;;;;;;;5.67;4.70;;;;;;;20.46;100.00;98139.78;1719873;82;28042;-89
2022/08/05 00:57:35;;;;;;;4.92;4.42;;;;;;;20.36;100.00;98136.04;1713743;81;28017;-86
2022/08/05 01:00:01;;;;;;;5.78;5.17;;;;;;;20.28;100.00;98133.42;1715696;81;28184;-86
2022/08/05 01:02:27;;;;;;;5.42;4.37;;;;;;;20.25;100.00;98136.91;1666932;84;28124;-86
2022/08/05 01:04:55;;;;;;;5.10;4.60;;;;;;;20.19;100.00;98134.95;1678770;82;28156;-86
2022/08/05 01:07:23;;;;;;;6.65;4.85;;;;;;;20.18;100.00;98134.14;1670256;83;28151;-86
2022/08/05 01:09:50;;;;;;;7.53;4.42;;;;;;;20.17;100.00;98131.16;1750453;79;28586;-87
2022/08/05 01:12:20;;;;;;;5.45;4.90;;;;;;;20.24;100.00;98133.91;1755941;79;27995;-87
2022/08/05 01:14:57;;;;;;;6.22;5.03;;;;;;;20.28;100.00;98132.09;1767682;79;28133;-86
2022/08/05 01:17:29;;;;;;;5.10;4.60;;;;;;;20.29;100.00;98129.73;1759288;79;28083;-86
2022/08/05 01:20:20;;;;;;;4.92;4.42;;;;;;;20.26;100.00;98129.27;1760070;79;28097;-86
2022/08/05 01:22:56;;;;;;;6.03;4.90;;;;;;;20.22;100.00;98127.97;1678519;82;28184;-87
2022/08/05 01:25:38;;;;;;;5.67;5.03;;;;;;;20.14;100.00;98124.84;1691696;83;28162;-87
2022/08/05 01:28:13;;;;;;;5.55;4.70;;;;;;;20.12;100.00;98121.55;1664568;84;28169;-86
2022/08/05 01:31:01;;;;;;;5.28;4.78;;;;;;;20.11;100.00;98119.89;1681377;83;28261;-87
2022/08/05 01:33:34;;;;;;;5.12;4.62;;;;;;;20.11;100.00;98119.06;1685443;80;28088;-87
2022/08/05 01:36:03;;;;;;;6.62;4.92;;;;;;;20.09;100.00;98116.58;1723719;80;28036;-87
2022/08/05 01:38:33;;;;;;;5.50;4.55;;;;;;;20.10;100.00;98115.58;1747450;79;28095;-86
2022/08/05 01:41:05;;;;;;;6.95;4.47;;;;;;;20.13;100.00;98116.54;1747994;80;28225;-86
2022/08/05 01:43:32;;;;;;;6.83;4.53;;;;;;;20.10;100.00;98114.25;1761255;79;28136;-87
2022/08/05 01:46:00;;;;;;;4.92;4.42;;;;;;;20.02;100.00;98116.94;1744943;80;28167;-87
2022/08/05 01:48:30;;;;;;;5.53;4.47;;;;;;;19.97;100.00;98116.63;1761371;79;28106;-88
2022/08/05 01:50:57;;;;;;;5.40;4.65;;;;;;;19.96;100.00;98117.16;1741613;79;28138;-87
2022/08/05 01:53:25;;;;;;;4.95;4.50;;;;;;;19.99;100.00;98111.98;1739621;78;28097;-85
2022/08/05 01:55:55;;;;;;;5.72;5.20;;;;;;;20.02;100.00;98112.95;1761751;79;28104;-87
2022/08/05 01:58:24;;;;;;;6.33;5.00;;;;;;;20.04;100.00;98107.80;1762546;80;28166;-87
2022/08/05 02:00:52;;;;;;;5.28;4.78;;;;;;;20.01;100.00;98104.18;1711687;80;28104;-87
2022/08/05 02:03:26;;;;;;;5.40;4.85;;;;;;;20.04;100.00;98105.64;1707850;81;27998;-87
2022/08/05 02:05:54;;;;;;;7.35;4.83;;;;;;;20.01;100.00;98102.02;1739684;80;28101;-87
2022/08/05 02:08:21;;;;;;;7.00;4.60;;;;;;;20.01;100.00;98105.51;1750125;80;28021;-87
2022/08/05 02:10:50;;;;;;;5.25;4.58;;;;;;;20.01;100.00;98106.00;1729197;79;28104;-88
2022/08/05 02:13:26;;;;;;;5.20;4.70;;;;;;;20.00;100.00;98103.02;1752907;79;28104;-88
2022/08/05 02:15:56;;;;;;;5.47;4.50;;;;;;;19.89;100.00;98102.08;1737536;80;28133;-87
2022/08/05 02:18:26;;;;;;;4.65;4.25;;;;;;;19.74;100.00;98098.51;1736249;80;28024;-88
2022/08/05 02:20:58;;;;;;;4.85;4.35;;;;;;;19.74;100.00;98091.38;1740123;79;28262;-87
2022/08/05 02:23:28;;;;;;;5.50;4.50;;;;;;;19.72;100.00;98093.36;1736059;80;28033;-87
2022/08/05 02:25:58;;;;;;;4.95;4.45;;;;;;;19.72;100.00;98097.84;1751219;79;28022;-90
2022/08/05 02:28:28;;;;;;;5.62;4.22;;;;;;;19.74;100.00;98094.52;1741027;80;28179;-87
2022/08/05 02:31:03;;;;;;;5.33;4.42;;;;;;;19.77;100.00;98090.18;1751973;80;28118;-87
2022/08/05 02:33:33;;;;;;;4.67;4.28;;;;;;;19.79;100.00;98086.86;1742761;80;28082;-86
2022/08/05 02:36:01;;;;;;;7.75;4.50;;;;;;;19.80;100.00;98083.22;1756448;79;28126;-88
2022/08/05 02:38:29;;;;;;;6.53;4.03;;;;;;;19.80;100.00;98084.02;1720516;81;28021;-87
2022/08/05 02:40:57;;;;;;;4.58;3.95;;;;;;;19.64;100.00;98082.77;1697654;82;28128;-87
2022/08/05 02:43:25;;;;;;;4.67;4.28;;;;;;;19.48;100.00;98084.98;1698431;82;28028;-87
2022/08/05 02:45:52;;;;;;;4.53;4.10;;;;;;;19.39;100.00;98082.01;1756773;80;28162;-89
2022/08/05 02:48:24;;;;;;;7.62;4.45;;;;;;;19.37;100.00;98077.86;1761580;79;28066;-91
2022/08/05 02:50:52;;;;;;;;;;;;;;;19.36;100.00;98079.71;1752635;79;28057;-90
2022/08/05 02:53:20;;;;;;;5.80;4.10;;;;;;;19.35;100.00;98075.89;1740112;80;24637;-88
2022/08/05 02:55:51;;;;;;;4.15;3.75;;;;;;;19.33;100.00;98076.05;1742714;80;28256;-90
2022/08/05 02:58:22;;;;;;;8.78;4.22;;;;;;;19.29;100.00;98076.08;1727663;80;28107;-87
2022/08/05 03:00:51;;;;;;;5.30;4.10;;;;;;;19.17;100.00;98076.94;1750052;79;28152;-87
2022/08/05 03:03:19;;;;;;;5.45;4.30;;;;;;;19.11;100.00;98072.80;1757463;80;28091;-90
2022/08/05 03:05:49;;;;;;;4.87;4.47;;;;;;;19.16;100.00;98075.27;1763770;80;28194;-88
2022/08/05 03:08:16;;;;;;;4.83;4.35;;;;;;;19.21;100.00;98070.28;1758314;80;28233;-87
2022/08/05 03:10:44;;;;;;;4.85;4.45;;;;;;;19.28;100.00;98070.44;1759104;79;28083;-90
2022/08/05 03:13:13;;;;;;;4.25;3.85;;;;;;;19.34;100.00;98063.13;1769638;79;28022;-87
2022/08/05 03:15:48;;;;;;;4.80;4.30;;;;;;;19.32;100.00;98073.06;1742116;80;28173;-87
2022/08/05 03:18:16;;;;;;;5.15;4.35;;;;;;;19.28;100.00;98070.93;1760971;79;28097;-87
2022/08/05 03:20:46;;;;;;;4.67;4.10;;;;;;;19.13;100.00;98071.65;1745118;79;28114;-87
2022/08/05 03:23:13;;;;;;;4.60;4.20;;;;;;;19.04;100.00;98066.02;1760055;79;28237;-90
2022/08/05 03:25:40;;;;;;;4.80;4.40;;;;;;;19.02;100.00;98073.33;1773710;79;28014;-87
2022/08/05 03:28:08;;;;;;;4.50;4.10;;;;;;;19.06;100.00;98071.16;1762305;79;28241;-88
2022/08/05 03:30:35;;;;;;;5.70;4.50;;;;;;;19.04;100.00;98076.62;1754426;79;28111;-90
2022/08/05 03:33:03;;;;;;;6.28;4.85;;;;;;;19.00;100.00;98073.98;1764893;79;28029;-88
2022/08/05 03:35:31;;;;;;;6.83;4.28;;;;;;;19.00;100.00;98078.45;1763449;79;28108;-87
2022/08/05 03:37:59;;;;;;;5.80;4.60;;;;;;;18.91;100.00;98075.50;1750974;79;28067;-87
2022/08/05 03:40:25;;;;;;;4.55;4.15;;;;;;;18.85;100.00;98074.84;1752336;80;28257;-88
2022/08/05 03:42:51;;;;;;;4.90;4.17;;;;;;;18.79;100.00;98078.99;1764382;80;28289;-88
2022/08/05 03:45:18;;;;;;;8.48;3.80;;;;;;;18.78;100.00;98074.68;1759224;79;28089;-87
2022/08/05 03:47:44;;;;;;;5.17;4.25;;;;;;;18.80;100.00;98078.83;1746618;80;28023;-87
2022/08/05 03:50:10;;;;;;;5.90;4.78;;;;;;;18.83;100.00;98078.15;1723911;80;28070;-88
2022/08/05 03:52:46;;;;;;;5.22;4.20;;;;;;;18.74;100.00;98079.99;1716774;80;28095;-88
2022/08/05 03:55:16;;;;;;;4.60;4.12;;;;;;;18.63;100.00;98079.00;1724068;80;28129;-87
2022/08/05 03:57:44;;;;;;;4.42;4.03;;;;;;;18.50;100.00;98083.93;1724142;80;28159;-88
2022/08/05 04:00:13;;;;;;;5.20;4.20;;;;;;;18.55;100.00;98077.66;1741329;80;28089;-88
2022/08/05 04:02:43;;;;;;;5.92;4.05;;;;;;;18.67;100.00;98077.67;1755116;79;28003;-90
2022/08/05 04:05:16;;;;;;;4.72;4.30;;;;;;;18.69;100.00;98076.52;1764664;80;28069;-91
2022/08/05 04:07:43;;;;;;;4.62;4.03;;;;;;;18.71;100.00;98073.19;1764958;80;28106;-87
2022/08/05 04:10:13;;;;;;;6.17;4.15;;;;;;;18.65;100.00;98076.53;1756279;78;28080;-90
2022/08/05 04:12:44;;;;;;;5.00;4.22;;;;;;;18.61;100.00;98075.68;1738633;81;28109;-89
2022/08/05 04:15:09;;;;;;;4.58;4.15;;;;;;;18.61;100.00;98075.68;1757870;79;28051;-87
2022/08/05 04:17:35;;;;;;;6.70;3.92;;;;;;;18.71;100.00;98073.71;1755114;80;28182;-88
2022/08/05 04:20:02;;;;;;;6.20;3.85;;;;;;;18.82;100.00;98067.23;1763281;79;28124;-88
2022/08/05 04:22:29;;;;;;;5.33;3.90;;;;;;;18.98;100.00;98069.86;1762180;80;28101;-90
2022/08/05 04:24:55;;;;;;;4.15;3.67;;;;;;;19.10;100.00;98061.86;1745147;80;28070;-90
2022/08/05 04:27:22;;;;;;;4.28;3.87;;;;;;;19.14;100.00;98058.72;1747093;80;28129;-88
2022/08/05 04:29:52;;;;;;;6.08;4.00;;;;;;;19.26;100.00;98064.95;1761481;79;28037;-88
2022/08/05 04:32:21;;;;;;;5.05;3.77;;;;;;;19.36;100.00;98057.66;1758444;79;28180;-88
2022/08/05 04:34:47;;;;;;;5.17;4.67;;;;;;;19.46;100.00;98063.12;1740000;80;28122;-88
2022/08/05 04:37:13;;;;;;;5.15;3.80;;;;;;;19.59;100.00;98058.56;1754374;80;28026;-90
2022/08/05 04:39:39;;;;;;;4.00;3.70;;;;;;;19.67;100.00;98055.05;1757567;79;28263;-90
2022/08/05 04:42:06;;;;;;;4.35;3.92;;;;;;;19.62;100.00;98055.08;1738799;80;28124;-90
2022/08/05 04:44:38;;;;;;;4.55;4.15;;;;;;;19.61;100.00;98056.58;1726963;81;28005;-87
2022/08/05 04:47:04;;;;;;;4.37;3.98;;;;;;;19.62;100.00;98060.39;1741144;79;28083;-87
2022/08/05 04:49:30;;;;;;;5.28;4.10;;;;;;;19.73;100.00;98062.33;1767692;79;28085;-88
2022/08/05 04:51:56;;;;;;;4.50;4.10;;;;;;;19.78;100.00;98057.32;1758271;79;28136;-87
2022/08/05 04:54:25;;;;;;;6.95;4.37;;;;;;;19.85;100.00;98054.30;1752821;79;28257;-87
2022/08/05 04:56:51;;;;;;;5.22;4.37;;;;;;;19.90;100.00;98061.24;1771007;79;28067;-87
2022/08/05 04:59:19;;;;;;;6.08;4.33;;;;;;;19.99;100.00;98058.86;1762031;79;28109;-88
2022/08/05 05:01:45;;;;;;;4.30;3.90;;;;;;;20.04;100.00;98054.67;1767312;79;28090;-87
2022/08/05 05:04:14;;;;;;;5.15;3.90;;;;;;;20.17;100.00;98057.25;1748209;79;28118;-87
2022/08/05 05:06:41;;;;;;;5.60;4.47;;;;;;;20.28;100.00;98058.17;1760323;79;28145;-86
2022/08/05 05:09:07;;;;;;;5.50;4.50;;;;;;;20.40;100.00;98061.58;1754154;79;28248;-87
2022/08/05 05:11:33;;;;;;;5.15;4.40;;;;;;;20.51;100.00;98052.34;1760915;80;28089;-87
2022/08/05 05:13:59;;;;;;;6.30;4.75;;;;;;;20.53;100.00;98058.83;1751555;79;28034;-86
2022/08/05 05:16:25;;;;;;;5.85;4.35;;;;;;;20.54;100.00;98056.50;1749087;80;28255;-87
2022/08/05 05:18:52;;;;;;;5.15;4.30;;;;;;;20.55;100.00;98055.50;1756137;79;28126;-86
2022/08/05 05:21:19;;;;;;;5.12;4.10;;;;;;;20.60;100.00;98059.27;1745743;80;28023;-87
2022/08/05 05:23:46;;;;;;;6.08;4.55;;;;;;;20.68;100.00;98055.70;1759769;79;28098;-86
2022/08/05 05:26:15;;;;;;;4.90;4.40;;;;;;;20.78;100.00;98056.30;1757274;80;28098;-86
2022/08/05 05:28:41;;;;;;;5.58;4.30;;;;;;;20.91;100.00;98057.81;1722688;79;28057;-90
2022/08/05 05:31:07;;;;;;;4.87;4.33;;;;;;;21.01;100.00;98049.56;1760412;79;28089;-86
2022/08/05 05:33:33;;;;;;;7.15;4.92;;;;;;;21.02;100.00;98054.70;1744449;79;28183;-86
2022/08/05 05:35:59;;;;;;;4.85;4.45;;;;;;;21.09;100.00;98057.47;1765076;80;28027;-87
2022/08/05 05:38:25;;;;;;;6.22;4.85;;;;;;;21.14;100.00;98062.60;1732731;79;28100;-86
2022/08/05 05:40:51;;;;;;;6.35;4.45;;;;;;;21.15;100.00;98062.09;1729040;80;28232;-87
2022/08/05 05:43:23;;;;;;;6.62;4.35;;;;;;;21.24;100.00;98066.31;1753985;78;28030;-86
2022/08/05 05:45:46;;;;;;;5.50;4.78;;;;;;;21.25;100.00;98068.80;1728087;80;28174;-89
2022/08/05 05:48:12;;;;;;;5.25;4.20;;;;;;;21.31;100.00;98072.56;1748215;79;28071;-89
2022/08/05 05:50:39;;;;;;;7.15;4.85;;;;;;;21.36;100.00;98068.84;1756750;80;28066;-89
2022/08/05 05:53:12;;;;;;;5.67;5.08;;;;;;;21.38;100.00;98072.66;1760241;80;28109;-89
2022/08/05 05:55:35;;;;;;;6.00;5.12;;;;;;;21.45;100.00;98072.23;1761940;79;28082;-85
2022/08/05 05:58:03;;;;;;;6.85;4.87;;;;;;;21.47;100.00;98071.55;1771953;79;28113;-89
2022/08/05 06:00:29;;;;;;;6.20;4.22;;;;;;;21.54;100.00;98070.64;1764732;79;28181;-85
2022/08/05 06:02:55;;;;;;;5.40;4.90;;;;;;;21.52;100.00;98070.48;1762580;79;28081;-85
2022/08/05 06:05:24;;;;;;;5.50;4.60;;;;;;;21.54;100.00;98068.48;1754572;79;43042;-86
2022/08/05 06:07:50;;;;;;;5.80;4.42;;;;;;;21.53;100.00;98068.98;1746680;80;28069;-87
2022/08/05 06:10:17;;;;;;;4.95;4.28;;;;;;;21.54;100.00;98074.63;1758481;80;37650;-87
2022/08/05 06:12:43;;;;;;;4.95;4.45;;;;;;;21.57;100.00;98073.42;1759715;79;28249;-90
2022/08/05 06:15:14;;;;;;;8.50;4.42;;;;;;;21.61;100.00;98069.36;1764733;80;28146;-89
2022/08/05 06:17:38;;;;;;;4.70;4.25;;;;;;;21.66;100.00;98067.80;1754928;79;28013;-90
2022/08/05 06:20:05;;;;;;;5.80;4.65;;;;;;;21.72;100.00;98066.23;1770436;79;28021;-87
2022/08/05 06:22:33;;;;;;;6.90;4.42;;;;;;;21.77;100.00;98067.00;1737052;80;28176;-87
2022/08/05 06:25:01;;;;;;;6.15;4.47;;;;;;;21.87;100.00;98068.88;1747902;80;28111;-91
2022/08/05 06:27:30;;;;;;;6.53;4.58;;;;;;;21.92;100.00;98075.30;1692955;82;28163;-89
2022/08/05 06:29:56;;;;;;;5.20;4.37;;;;;;;22.02;100.00;98073.19;1702433;82;28191;-90
2022/08/05 06:32:23;;;;;;;4.45;4.05;;;;;;;22.10;100.00;98070.39;1707357;83;28001;-87
2022/08/05 06:34:49;;;;;;;6.22;4.37;;;;;;;22.20;100.00;98070.61;1716897;81;28090;-87
2022/08/05 06:37:15;;;;;;;6.53;4.33;;;;;;;22.27;100.00;98064.82;1722394;81;28137;-90
2022/08/05 06:39:42;;;;;;;6.20;4.50;;;;;;;22.38;100.00;98067.81;1728349;80;28109;-88
2022/08/05 06:42:07;;;;;;;;;;;;;;;22.45;100.00;98066.04;1745426;79;28118;-92
2022/08/05 06:44:33;;;;;;;;;;;;;;;22.58;100.00;98065.85;1762261;80;20991;-89
2022/08/05 06:47:01;;;;;;;;;;;;;;;22.67;100.00;98064.19;1766443;80;20286;-88
2022/08/05 06:49:28;;;;;;;;;;;;;;;22.75;100.00;98061.39;1730697;80;20216;-90
2022/08/05 06:51:54;;;;;;;;;;;;;;;22.83;100.00;98063.94;1722245;80;25036;-88
2022/08/05 06:54:20;;;;;;;;;;;;;;;22.93;100.00;98064.41;1746394;80;20768;-91
2022/08/05 06:56:53;;;;;;;;;;;;;;;23.04;100.00;98062.22;1726710;80;21827;-87
2022/08/05 06:59:19;;;;;;;;;;;;;;;23.14;100.00;98055.52;1760091;80;24513;-90
2022/08/05 07:01:45;;;;;;;;;;;;;;;23.28;100.00;98063.11;1759782;80;20230;-90
2022/08/05 07:04:11;;;;;;;;;;;;;;;23.36;100.00;98063.77;1751238;80;20357;-90
2022/08/05 07:06:37;;;;;;;;;;;;;;;23.43;100.00;98062.47;1756925;79;20228;-91
2022/08/05 07:11:50;;;;;;;;;;;;;;;23.58;100.00;98057.02;1707558;81;20960;-86
2022/08/05 07:17:03;;;;;;;;;;;;;;;23.94;100.00;98067.46;1660453;84;24838;-86
2022/08/05 07:19:29;;;;;;;;;;;;;;;24.07;100.00;98059.46;1658788;85;20295;-86
2022/08/05 07:21:55;;;;;;;;;;;;;;;24.22;100.00;98065.48;1660862;85;21021;-86
2022/08/05 07:24:21;;;;;;;;;;;;;;;24.35;100.00;98066.03;1653154;85;24458;-91
2022/08/05 07:26:47;;;;;;;;;;;;;;;24.46;100.00;98064.92;1648506;84;20511;-91
2022/08/05 07:29:14;;;;;;;;;;;;;;;24.55;100.00;98062.35;1659161;85;24877;-87
2022/08/05 07:31:40;;;;;;;;;;;;;;;24.63;100.00;98063.19;1648846;85;20243;-88
2022/08/05 07:34:06;;;;;;;;;;;;;;;24.73;100.00;98064.94;1610289;86;26014;-87
2022/08/05 07:36:32;;;;;;;;;;;;;;;24.82;100.00;98062.38;1652148;85;24549;-88
2022/08/05 07:39:00;;;;;;;;;;;;;;;24.92;100.00;98061.48;1648405;85;20839;-90
2022/08/05 07:41:26;;;;;;;;;;;;;;;24.98;100.00;98061.45;1669310;83;24776;-87
2022/08/05 07:43:53;;;;;;;;;;;;;;;25.03;100.00;98060.02;1682629;83;22040;-88
2022/08/05 07:46:19;;;;;;;;;;;;;;;25.16;100.00;98066.69;1675010;84;26120;-87
2022/08/05 07:48:45;;;;;;;;;;;;;;;25.19;100.00;98062.27;1709407;82;24528;-87
2022/08/05 07:51:11;;;;;;;;;;;;;;;25.29;100.00;98057.30;1707580;82;20467;-87
2022/08/05 07:53:37;;;;;;;;;;;;;;;25.39;100.00;98058.50;1703982;82;25528;-86
2022/08/05 07:56:03;;;;;;;;;;;;;;;25.49;100.00;98058.57;1685300;83;20435;-87
2022/08/05 07:58:29;;;;;;;;;;;;;;;25.61;100.00;98060.42;1712187;82;26239;-87
2022/08/05 08:00:55;;;;;;;;;;;;;;;25.75;100.00;98058.50;1681878;83;20937;-91
2022/08/05 08:03:20;;;;;;;;;;;;;;;25.90;100.00;98056.91;1692687;82;20780;-88
2022/08/05 08:05:53;;;;;;;;;;;;;;;26.02;100.00;98057.89;1720650;82;20690;-91
2022/08/05 08:08:28;;;;;;;;;;;;;;;26.14;100.00;98066.36;1705715;82;22084;-91
2022/08/05 08:10:55;;;;;;;;;;;;;;;26.24;100.00;98063.23;1694458;82;26702;-87
2022/08/05 08:13:24;;;;;;;;;;;;;;;26.32;100.00;98054.12;1670522;84;24670;-87
2022/08/05 08:15:50;;;;;;;;;;;;;;;26.38;100.00;98059.97;1681116;83;20369;-88
2022/08/05 08:18:16;;;;;;;;;;;;;;;26.46;100.00;98062.38;1634673;85;24876;-87
2022/08/05 08:20:42;;;;;;;;;;;;;;;26.53;100.00;98061.81;1659338;84;22060;-90
2022/08/05 08:23:08;;;;;;;;;;;;;;;26.62;100.00;98059.19;1661164;83;21013;-91
2022/08/05 08:25:36;;;;;;;;;;;;;;;26.72;100.00;98053.32;1653462;84;24451;-91
2022/08/05 08:28:02;;;;;;;;;;;;;;;26.74;100.00;98058.75;1656773;84;20550;-87
2022/08/05 08:30:28;;;;;;;;;;;;;;;26.83;100.00;98055.30;1657204;84;25545;-87
2022/08/05 08:32:54;;;;;;;;;;;;;;;26.91;100.00;98058.55;1630048;85;20316;-87
2022/08/05 08:35:20;;;;;;;;;;;;;;;26.95;100.00;98057.05;1654074;84;26009;-87
2022/08/05 08:37:46;;;;;;;;;;;;;;;27.02;100.00;98056.48;1659387;84;25418;-87
2022/08/05 08:40:12;;;;;;;;;;;;;;;27.08;100.00;98060.66;1685190;82;20239;-88
2022/08/05 08:42:38;;;;;;;;;;;;;;;27.19;100.00;98062.63;1715090;82;20192;-88
2022/08/05 08:45:06;;;;;;;;;;;;;;;27.32;100.00;98055.27;1683686;83;22120;-89
2022/08/05 08:47:32;;;;;;;;;;;;;;;27.36;99.77;98056.97;1686236;82;26171;-87
2022/08/05 08:50:00;;;;;;;;;;;;;;;27.45;99.07;98057.80;1711397;82;24594;-89
2022/08/05 08:52:32;;;;;;;;;;;;;;;27.49;98.14;98056.30;1709829;82;20906;-89
2022/08/05 08:54:59;;;;;;;;;;;;;;;27.60;96.65;98053.95;1695841;81;25299;-89
2022/08/05 08:57:25;;;;;;;;;;;;;;;27.78;95.51;98060.64;1657072;83;22885;-87
2022/08/05 08:59:51;;;;;;;;;;;;;;;27.93;94.90;98062.97;1657990;84;26754;-89
2022/08/05 09:02:19;;;;;;;;;;;;;;;28.05;93.27;98051.70;1698401;82;25284;-86
2022/08/05 09:04:45;;;;;;;;;;;;;;;28.13;92.17;98054.95;1687964;82;20245;-87
2022/08/05 09:07:11;;;;;;;;;;;;;;;28.21;91.31;98051.92;1685873;82;24877;-88
2022/08/05 09:09:37;;;;;;;;;;;;;;;28.27;89.96;98056.39;1688820;82;22197;-87
2022/08/05 09:12:04;;;;;;;;;;;;;;;28.35;88.99;98056.61;1702645;83;20931;-91
2022/08/05 09:14:31;;;;;;;;;;;;;;;28.39;87.83;98051.57;1693578;82;24546;-90
2022/08/05 09:16:59;;;;;;;;;;;;;;;28.47;86.48;98052.08;1708565;82;20332;-87
2022/08/05 09:19:25;;;;;;;;;;;;;;;28.56;85.39;98049.86;1717319;82;24938;-89
2022/08/05 09:21:51;;;;;;;;;;;;;;;28.55;84.01;98046.34;1709884;82;20253;-87
2022/08/05 09:24:16;;;;;;;;;;;;;;;28.56;83.25;98039.09;1683126;83;21783;-87
2022/08/05 09:26:44;;;;;;;;;;;;;;;28.55;81.88;98039.61;1662337;84;20287;-87
2022/08/05 09:29:15;;;;;;;;;;;;;;;28.55;80.36;98035.58;1660995;83;20483;-88
2022/08/05 09:31:45;;;;;;;;;;;;;;;28.58;79.26;98037.00;1678229;84;24896;-91
2022/08/05 09:34:09;;;;;;;;;;;;;;;28.68;78.59;98030.52;1681666;83;22318;-91
2022/08/05 09:36:43;;;;;;;;;;;;;;;28.73;77.98;98029.84;1675808;83;25969;-88
2022/08/05 09:39:10;;;;;;;;;;;;;;;28.78;77.59;98030.78;1682702;83;25250;-88
2022/08/05 09:41:35;;;;;;;;;;;;;;;;;;1664312;83;20251;-87
2022/08/05 09:44:02;;;;;;;;;;;;;;;29.09;76.84;98035.00;1652518;85;20586;-87
2022/08/05 09:46:29;;;;;;;;;;;;;;;29.20;76.54;98036.05;1664424;84;21970;-87
2022/08/05 09:49:00;;;;;;;;;;;;;;;29.22;75.65;98033.42;1682727;84;26165;-89
2022/08/05 09:51:31;;;;;;;;;;;;;;;29.23;75.04;98031.55;1710521;81;24459;-87
2022/08/05 09:53:58;;;;;;;;;;;;;;;29.27;74.76;98034.87;1657034;83;20709;-87
2022/08/05 09:56:25;;;;;;;;;;;;;;;29.33;74.01;98035.84;1676058;83;24741;-88
2022/08/05 09:58:59;;;;;;;;;;;;;;;29.41;72.83;98033.59;1671595;82;22594;-88
2022/08/05 10:01:24;;;;;;;;;;;;;;;29.57;72.73;98032.03;1666882;83;26083;-88
2022/08/05 10:03:58;;;;;;;;;;;;;;;29.73;72.38;98032.63;1690079;83;20472;-88
2022/08/05 10:06:26;;;;;;;;;;;;;;;29.83;71.85;98033.38;1662768;84;20301;-91
2022/08/05 10:08:52;;;;;;;;;;;;;;;29.87;70.87;98028.61;1670001;84;24845;-90
2022/08/05 10:13:44;;;;;;;;;;;;;;;30.09;70.01;98021.22;1670478;83;20901;-92
2022/08/05 10:16:29;;;;;;;;;;;;;;;30.16;69.14;98017.85;1671602;83;24489;-89
2022/08/05 10:18:55;;;;;;;;;;;;;;;30.20;68.45;98022.52;1672746;84;20436;-88
2022/08/05 10:21:21;;;;;;;;;;;;;;;30.23;67.91;98017.97;1671978;84;24842;-88
2022/08/05 10:23:49;;;;;;;;;;;;;;;30.33;67.66;98020.05;1708232;82;20803;-88
2022/08/05 10:26:16;;;;;;;;;;;;;;;30.42;67.65;98016.41;1710990;82;21792;-91
2022/08/05 10:28:43;;;;;;;;;;;;;;;30.42;66.86;98022.62;1720040;81;20311;-92
2022/08/05 10:31:10;;;;;;;;;;;;;;;30.49;66.54;98020.63;1707982;81;20310;-88
2022/08/05 10:33:36;;;;;;;;;;;;;;;30.52;65.98;98019.30;1661209;84;24917;-87
2022/08/05 10:36:03;;;;;;;;;;;;;;;30.60;65.78;98012.16;1663600;83;21552;-88
2022/08/05 10:38:38;;;;;;;4.72;2.10;;;;;;;30.63;64.73;98014.36;1679705;83;26009;-88
2022/08/05 10:41:19;;;;;;;3.95;2.12;;;;;;;30.65;64.17;98012.24;1680092;83;28211;-91
2022/08/05 10:44:04;;;;;;;3.52;2.65;;;;;;;30.67;63.60;98008.74;1642901;84;28155;-88
2022/08/05 10:46:51;;;;;;;3.15;2.60;;;;;;;30.73;63.41;97998.30;1695364;82;28096;-91
2022/08/05 10:49:19;;;;;;;4.37;2.62;;;;;;;30.79;63.01;98000.55;1669197;82;28104;-91
2022/08/05 10:51:55;;;;;;;3.40;2.58;;;;;;;30.84;62.81;97994.69;1652032;84;28143;-87
2022/08/05 10:54:18;;;;;;;2.77;2.58;;;;;;;30.90;62.44;98005.05;1700318;82;28099;-89
2022/08/05 10:56:47;;;;;;;2.50;2.30;;;;;;;30.97;62.11;98007.05;1671202;83;28089;-88
2022/08/05 10:59:29;;;;;;;5.30;2.60;;;;;;;31.00;61.65;97999.26;1705504;82;28027;-90
2022/08/05 11:02:12;;;;;;;;;;;;;;;31.03;61.59;98004.22;1704004;82;28102;-88
2022/08/05 11:04:44;;;;;;;3.42;2.30;;;;;;;31.05;60.97;97999.36;1709939;81;25595;-89
2022/08/05 11:07:17;;;;;;;3.72;2.35;;;;;;;31.09;60.59;98002.41;1711362;81;28003;-90
2022/08/05 11:09:52;;;;;;;3.10;2.20;;;;;;;31.12;60.29;98000.01;1701517;81;28090;-90
2022/08/05 11:12:25;;;;;;;2.70;2.50;;;;;;;31.16;59.92;97991.67;1672580;83;28063;-91
2022/08/05 11:15:10;;;;;;;2.47;2.27;;;;;;;31.20;59.51;97984.44;1668011;84;28118;-90
2022/08/05 11:17:37;;;;;;;2.52;2.33;;;;;;;31.19;58.85;97984.97;1677585;83;28059;-91
2022/08/05 11:20:03;;;;;;;3.45;2.67;;;;;;;31.16;57.88;97989.50;1675130;84;28083;-89
2022/08/05 11:22:50;;;;;;;3.17;2.50;;;;;;;31.11;57.30;97996.19;1671479;83;28036;-88
2022/08/05 11:25:42;;;;;;;5.60;2.37;;;;;;;31.11;57.21;97997.02;1642756;85;28096;-91
2022/08/05 11:28:16;;;;;;;3.58;2.45;;;;;;;31.21;57.33;97991.45;1642864;85;28189;-88
2022/08/05 11:31:02;;;;;;;3.02;2.72;;;;;;;31.23;56.80;97991.50;1657879;84;28145;-87
2022/08/05 11:33:28;;;;;;;3.52;2.58;;;;;;;31.20;56.27;97987.95;1691911;82;28069;-90
2022/08/05 11:35:56;;;;;;;4.03;2.27;;;;;;;31.20;55.75;97985.25;1669806;83;28006;-91
2022/08/05 11:38:43;;;;;;;3.02;2.72;;;;;;;31.18;55.11;97982.50;1696328;82;28134;-89
2022/08/05 11:41:15;;;;;;;3.77;2.60;;;;;;;31.11;54.29;97982.14;1688624;83;28260;-89
2022/08/05 11:44:03;;;;;;;2.65;2.45;;;;;;;31.20;54.35;97987.14;1700405;81;28270;-90
2022/08/05 11:46:48;;;;;;;3.75;2.58;;;;;;;31.33;54.68;97986.75;1709952;81;28072;-91
2022/08/05 11:49:20;;;;;;;2.95;2.65;;;;;;;31.51;54.71;97992.68;1680348;82;28167;-87
2022/08/05 11:51:49;;;;;;;3.60;2.42;;;;;;;31.64;54.35;97996.91;1705864;81;28155;-88
2022/08/05 11:54:26;;;;;;;6.10;2.80;;;;;;;31.70;54.08;97993.19;1715373;81;28146;-88
2022/08/05 11:56:55;;;;;;;4.45;2.87;;;;;;;31.76;53.98;97997.59;1705300;82;28111;-91
2022/08/05 11:59:26;;;;;;;3.08;2.55;;;;;;;31.82;53.78;97989.81;1659746;83;28150;-89
2022/08/05 12:01:56;;;;;;;3.35;2.58;;;;;;;31.88;53.15;97995.57;1691497;82;28105;-88
2022/08/05 12:04:25;;;;;;;2.60;2.40;;;;;;;32.00;53.35;97995.42;1703891;82;28119;-87
2022/08/05 12:06:52;;;;;;;3.42;2.35;;;;;;;31.99;52.62;97993.78;1695460;82;28265;-87